Ashland, Maine
Current Conditions -  °F | °C
As of 12:35 PM on Thursday 30 Oct 2014 (Local Time) from KPQI Reporting Station
Broken Clouds Broken Clouds  
Wind Chill: 45°   Ceiling: 3800
Heat Index: 48°   Visibility: 10mi
Dew Point: 32°   Wind: 8mph
Humidity: 54%   Direction: 300°WNW
Pressure: 29.81"   Gusts: NA
Location:  46.63°N, 68.41°W
Report Text: KPQI 301635Z AUTO 30007KT 10SM BKN038 09/00 A2981 RMK AO1
Loading
Personal Weather Stations






























Interactive Weather Map
Tropical Storm Tracking
New forecast layout! Learn more

10-Day Weather Forecast

Advertisements
Track Severe Weather on mobile